sensor_id;sensor_type;location;lat;lon;timestamp;P1;durP1;ratioP1;P2;durP2;ratioP2
31531;SDS011;23787;52.180;5.288;2022-11-02T00:10:37;196.80;;;185.70;;
31531;SDS011;23787;52.180;5.288;2022-11-02T00:15:37;202.20;;;190.40;;
31531;SDS011;23787;52.180;5.288;2022-11-02T00:25:38;202.20;;;190.40;;
31531;SDS011;23787;52.180;5.288;2022-11-02T00:30:11;183.80;;;173.80;;
31531;SDS011;23787;52.180;5.288;2022-11-02T00:33:56;unknown;;;unknown;;
31531;SDS011;23787;52.180;5.288;2022-11-02T00:47:21;162.90;;;154.30;;
31531;SDS011;23787;52.180;5.288;2022-11-02T00:52:21;162.90;;;154.30;;
31531;SDS011;23787;52.180;5.288;2022-11-02T01:02:21;154.60;;;145.90;;
31531;SDS011;23787;52.180;5.288;2022-11-02T01:07:21;154.60;;;145.90;;
31531;SDS011;23787;52.180;5.288;2022-11-02T01:12:22;154.60;;;145.90;;
31531;SDS011;23787;52.180;5.288;2022-11-02T01:17:21;175.80;;;166.30;;
31531;SDS011;23787;52.180;5.288;2022-11-02T01:22:21;175.80;;;166.30;;
31531;SDS011;23787;52.180;5.288;2022-11-02T01:32:21;171.30;;;162.20;;
31531;SDS011;23787;52.180;5.288;2022-11-02T01:37:21;171.30;;;162.20;;
31531;SDS011;23787;52.180;5.288;2022-11-02T01:42:23;171.30;;;162.20;;
31531;SDS011;23787;52.180;5.288;2022-11-02T01:47:25;167.10;;;157.60;;
31531;SDS011;23787;52.180;5.288;2022-11-02T01:52:25;167.10;;;157.60;;
31531;SDS011;23787;52.180;5.288;2022-11-02T01:57:22;167.10;;;157.60;;
31531;SDS011;23787;52.180;5.288;2022-11-02T02:02:24;128.40;;;121.60;;
31531;SDS011;23787;52.180;5.288;2022-11-02T02:07:23;128.40;;;121.60;;
31531;SDS011;23787;52.180;5.288;2022-11-02T02:22:33;117.10;;;110.90;;
31531;SDS011;23787;52.180;5.288;2022-11-02T02:27:27;117.10;;;110.90;;
31531;SDS011;23787;52.180;5.288;2022-11-02T02:37:26;110.80;;;104.80;;
31531;SDS011;23787;52.180;5.288;2022-11-02T02:42:24;110.80;;;104.80;;
31531;SDS011;23787;52.180;5.288;2022-11-02T02:47:24;90.50;;;85.80;;
31531;SDS011;23787;52.180;5.288;2022-11-02T02:57:22;90.50;;;85.80;;
31531;SDS011;23787;52.180;5.288;2022-11-02T03:02:24;98.90;;;93.80;;
31531;SDS011;23787;52.180;5.288;2022-11-02T03:12:28;98.90;;;93.80;;
31531;SDS011;23787;52.180;5.288;2022-11-02T03:17:27;94.80;;;89.60;;
31531;SDS011;23787;52.180;5.288;2022-11-02T03:22:29;94.80;;;89.60;;
31531;SDS011;23787;52.180;5.288;2022-11-02T03:37:24;80.70;;;76.30;;
31531;SDS011;23787;52.180;5.288;2022-11-02T03:42:25;80.70;;;76.30;;
31531;SDS011;23787;52.180;5.288;2022-11-02T03:47:22;81.00;;;76.60;;
31531;SDS011;23787;52.180;5.288;2022-11-02T03:52:25;81.00;;;76.60;;
31531;SDS011;23787;52.180;5.288;2022-11-02T03:57:24;81.00;;;76.60;;
31531;SDS011;23787;52.180;5.288;2022-11-02T04:07:25;80.20;;;76.10;;
31531;SDS011;23787;52.180;5.288;2022-11-02T04:12:21;80.20;;;76.10;;
31531;SDS011;23787;52.180;5.288;2022-11-02T04:17:22;94.10;;;89.20;;
31531;SDS011;23787;52.180;5.288;2022-11-02T04:22:22;94.10;;;89.20;;
31531;SDS011;23787;52.180;5.288;2022-11-02T04:37:22;82.10;;;77.80;;
31531;SDS011;23787;52.180;5.288;2022-11-02T04:47:22;73.30;;;69.60;;
31531;SDS011;23787;52.180;5.288;2022-11-02T04:57:22;73.30;;;69.60;;
31531;SDS011;23787;52.180;5.288;2022-11-02T05:07:22;100.50;;;95.30;;
31531;SDS011;23787;52.180;5.288;2022-11-02T05:22:22;102.50;;;97.20;;
31531;SDS011;23787;52.180;5.288;2022-11-02T05:27:21;102.50;;;97.20;;
31531;SDS011;23787;52.180;5.288;2022-11-02T05:32:21;78.60;;;74.50;;
31531;SDS011;23787;52.180;5.288;2022-11-02T05:42:22;78.60;;;74.50;;
31531;SDS011;23787;52.180;5.288;2022-11-02T05:52:22;102.60;;;96.90;;
31531;SDS011;23787;52.180;5.288;2022-11-02T06:12:22;102.00;;;96.70;;
31531;SDS011;23787;52.180;5.288;2022-11-02T06:17:22;88.80;;;83.90;;
31531;SDS011;23787;52.180;5.288;2022-11-02T06:22:22;88.80;;;83.90;;
31531;SDS011;23787;52.180;5.288;2022-11-02T06:37:22;93.60;;;87.40;;
31531;SDS011;23787;52.180;5.288;2022-11-02T06:42:22;93.60;;;87.40;;
31531;SDS011;23787;52.180;5.288;2022-11-02T06:52:22;83.80;;;79.30;;
31531;SDS011;23787;52.180;5.288;2022-11-02T07:02:22;96.80;;;91.80;;
31531;SDS011;23787;52.180;5.288;2022-11-02T07:07:22;96.80;;;91.80;;
31531;SDS011;23787;52.180;5.288;2022-11-02T07:12:22;96.80;;;91.80;;
31531;SDS011;23787;52.180;5.288;2022-11-02T07:27:22;74.30;;;70.50;;
31531;SDS011;23787;52.180;5.288;2022-11-02T07:37:22;84.20;;;79.60;;
31531;SDS011;23787;52.180;5.288;2022-11-02T07:42:22;84.20;;;79.60;;
31531;SDS011;23787;52.180;5.288;2022-11-02T07:47:22;71.70;;;67.80;;
31531;SDS011;23787;52.180;5.288;2022-11-02T07:52:22;71.70;;;67.80;;
31531;SDS011;23787;52.180;5.288;2022-11-02T08:02:22;63.00;;;59.70;;
31531;SDS011;23787;52.180;5.288;2022-11-02T08:07:22;63.00;;;59.70;;
31531;SDS011;23787;52.180;5.288;2022-11-02T08:17:22;70.70;;;67.00;;
31531;SDS011;23787;52.180;5.288;2022-11-02T08:22:22;70.70;;;67.00;;
31531;SDS011;23787;52.180;5.288;2022-11-02T08:27:22;70.70;;;67.00;;
31531;SDS011;23787;52.180;5.288;2022-11-02T08:32:22;85.90;;;81.30;;
31531;SDS011;23787;52.180;5.288;2022-11-02T08:37:22;85.90;;;81.30;;
31531;SDS011;23787;52.180;5.288;2022-11-02T08:42:22;85.90;;;81.30;;
31531;SDS011;23787;52.180;5.288;2022-11-02T08:47:22;93.40;;;88.30;;
31531;SDS011;23787;52.180;5.288;2022-11-02T08:52:22;93.40;;;88.30;;
31531;SDS011;23787;52.180;5.288;2022-11-02T08:57:22;93.40;;;88.30;;
31531;SDS011;23787;52.180;5.288;2022-11-02T09:02:22;144.70;;;137.00;;
31531;SDS011;23787;52.180;5.288;2022-11-02T09:07:22;144.70;;;137.00;;
31531;SDS011;23787;52.180;5.288;2022-11-02T09:12:22;144.70;;;137.00;;
31531;SDS011;23787;52.180;5.288;2022-11-02T09:17:22;244.20;;;230.90;;
31531;SDS011;23787;52.180;5.288;2022-11-02T09:22:22;244.20;;;230.90;;
31531;SDS011;23787;52.180;5.288;2022-11-02T09:27:22;244.20;;;230.90;;
31531;SDS011;23787;52.180;5.288;2022-11-02T09:32:22;343.80;;;323.60;;
31531;SDS011;23787;52.180;5.288;2022-11-02T09:37:22;343.80;;;323.60;;
31531;SDS011;23787;52.180;5.288;2022-11-02T09:42:26;343.80;;;323.60;;
31531;SDS011;23787;52.180;5.288;2022-11-02T09:47:25;388.90;;;363.70;;
31531;SDS011;23787;52.180;5.288;2022-11-02T09:52:32;388.90;;;363.70;;
31531;SDS011;23787;52.180;5.288;2022-11-02T09:57:27;388.90;;;363.70;;
31531;SDS011;23787;52.180;5.288;2022-11-02T10:02:29;348.80;;;324.60;;
31531;SDS011;23787;52.180;5.288;2022-11-02T10:07:31;348.80;;;324.60;;
31531;SDS011;23787;52.180;5.288;2022-11-02T10:12:25;348.80;;;324.60;;
31531;SDS011;23787;52.180;5.288;2022-11-02T10:17:24;330.90;;;306.80;;
31531;SDS011;23787;52.180;5.288;2022-11-02T10:22:26;330.90;;;306.80;;
31531;SDS011;23787;52.180;5.288;2022-11-02T10:27:24;330.90;;;306.80;;
31531;SDS011;23787;52.180;5.288;2022-11-02T10:32:22;305.30;;;282.70;;
31531;SDS011;23787;52.180;5.288;2022-11-02T10:37:32;305.30;;;282.70;;
31531;SDS011;23787;52.180;5.288;2022-11-02T10:42:34;305.30;;;282.70;;
31531;SDS011;23787;52.180;5.288;2022-11-02T10:47:24;250.70;;;231.30;;
31531;SDS011;23787;52.180;5.288;2022-11-02T10:52:22;250.70;;;231.30;;
31531;SDS011;23787;52.180;5.288;2022-11-02T10:57:23;250.70;;;231.30;;
31531;SDS011;23787;52.180;5.288;2022-11-02T11:02:22;214.70;;;197.10;;
31531;SDS011;23787;52.180;5.288;2022-11-02T11:07:25;214.70;;;197.10;;
31531;SDS011;23787;52.180;5.288;2022-11-02T11:12:27;214.70;;;197.10;;
31531;SDS011;23787;52.180;5.288;2022-11-02T11:17:26;213.10;;;195.00;;
31531;SDS011;23787;52.180;5.288;2022-11-02T11:22:24;213.10;;;195.00;;
31531;SDS011;23787;52.180;5.288;2022-11-02T11:27:22;213.10;;;195.00;;
31531;SDS011;23787;52.180;5.288;2022-11-02T11:32:23;151.90;;;140.10;;
31531;SDS011;23787;52.180;5.288;2022-11-02T11:37:22;151.90;;;140.10;;
31531;SDS011;23787;52.180;5.288;2022-11-02T11:42:24;151.90;;;140.10;;
31531;SDS011;23787;52.180;5.288;2022-11-02T11:47:24;152.20;;;139.90;;
31531;SDS011;23787;52.180;5.288;2022-11-02T11:54:55;unknown;;;unknown;;
31531;SDS011;23787;52.180;5.288;2022-11-02T12:04:59;148.60;;;136.40;;
31531;SDS011;23787;52.180;5.288;2022-11-02T12:10:00;148.60;;;136.40;;
31531;SDS011;23787;52.180;5.288;2022-11-02T12:15:00;139.90;;;127.80;;
31531;SDS011;23787;52.180;5.288;2022-11-02T12:20:05;139.90;;;127.80;;
31531;SDS011;23787;52.180;5.288;2022-11-02T12:25:07;139.90;;;127.80;;
31531;SDS011;23787;52.180;5.288;2022-11-02T12:30:02;139.30;;;128.50;;
31531;SDS011;23787;52.180;5.288;2022-11-02T12:35:06;139.30;;;128.50;;
31531;SDS011;23787;52.180;5.288;2022-11-02T12:40:01;139.30;;;128.50;;
31531;SDS011;23787;52.180;5.288;2022-11-02T12:45:01;145.30;;;133.50;;
31531;SDS011;23787;52.180;5.288;2022-11-02T12:50:03;145.30;;;133.50;;
31531;SDS011;23787;52.180;5.288;2022-11-02T12:54:55;145.30;;;133.50;;
31531;SDS011;23787;52.180;5.288;2022-11-02T12:59:57;166.70;;;153.50;;
31531;SDS011;23787;52.180;5.288;2022-11-02T13:04:56;166.70;;;153.50;;
31531;SDS011;23787;52.180;5.288;2022-11-02T13:09:57;166.70;;;153.50;;
31531;SDS011;23787;52.180;5.288;2022-11-02T13:14:55;176.50;;;161.10;;
31531;SDS011;23787;52.180;5.288;2022-11-02T13:19:54;176.50;;;161.10;;
31531;SDS011;23787;52.180;5.288;2022-11-02T13:24:56;176.50;;;161.10;;
31531;SDS011;23787;52.180;5.288;2022-11-02T13:29:55;172.90;;;158.30;;
31531;SDS011;23787;52.180;5.288;2022-11-02T13:34:53;172.90;;;158.30;;
31531;SDS011;23787;52.180;5.288;2022-11-02T13:39:55;172.90;;;158.30;;
31531;SDS011;23787;52.180;5.288;2022-11-02T13:49:55;202.80;;;186.00;;
31531;SDS011;23787;52.180;5.288;2022-11-02T13:54:55;202.80;;;186.00;;
31531;SDS011;23787;52.180;5.288;2022-11-02T13:59:53;224.70;;;207.10;;
31531;SDS011;23787;52.180;5.288;2022-11-02T14:04:52;224.70;;;207.10;;
31531;SDS011;23787;52.180;5.288;2022-11-02T14:19:54;233.50;;;215.00;;
31531;SDS011;23787;52.180;5.288;2022-11-02T14:24:53;233.50;;;215.00;;
31531;SDS011;23787;52.180;5.288;2022-11-02T14:35:04;258.00;;;237.10;;
31531;SDS011;23787;52.180;5.288;2022-11-02T14:37:01;unknown;;;unknown;;
31531;SDS011;23787;52.180;5.288;2022-11-02T14:41:46;unknown;;;unknown;;
31531;SDS011;23787;52.180;5.288;2022-11-02T14:46:48;283.30;;;262.30;;
31531;SDS011;23787;52.180;5.288;2022-11-02T14:51:36;283.30;;;262.30;;
31531;SDS011;23787;52.180;5.288;2022-11-02T14:56:46;283.30;;;262.30;;
31531;SDS011;23787;52.180;5.288;2022-11-02T15:01:47;322.30;;;298.50;;
31531;SDS011;23787;52.180;5.288;2022-11-02T15:06:35;322.30;;;298.50;;
31531;SDS011;23787;52.180;5.288;2022-11-02T15:11:46;322.30;;;298.50;;
31531;SDS011;23787;52.180;5.288;2022-11-02T15:16:38;313.90;;;291.40;;
31531;SDS011;23787;52.180;5.288;2022-11-02T15:21:35;313.90;;;291.40;;
31531;SDS011;23787;52.180;5.288;2022-11-02T15:26:39;313.90;;;291.40;;
31531;SDS011;23787;52.180;5.288;2022-11-02T15:31:36;320.00;;;297.00;;
31531;SDS011;23787;52.180;5.288;2022-11-02T15:41:38;320.00;;;297.00;;
31531;SDS011;23787;52.180;5.288;2022-11-02T15:46:47;342.00;;;319.20;;
31531;SDS011;23787;52.180;5.288;2022-11-02T15:51:38;342.00;;;319.20;;
31531;SDS011;23787;52.180;5.288;2022-11-02T16:06:37;337.00;;;315.00;;
31531;SDS011;23787;52.180;5.288;2022-11-02T16:11:35;337.00;;;315.00;;
31531;SDS011;23787;52.180;5.288;2022-11-02T16:26:35;330.40;;;309.00;;
31531;SDS011;23787;52.180;5.288;2022-11-02T16:36:36;303.80;;;284.40;;
31531;SDS011;23787;52.180;5.288;2022-11-02T16:51:36;289.90;;;272.90;;
31531;SDS011;23787;52.180;5.288;2022-11-02T16:56:35;289.90;;;272.90;;
31531;SDS011;23787;52.180;5.288;2022-11-02T17:01:37;278.60;;;261.60;;
31531;SDS011;23787;52.180;5.288;2022-11-02T17:06:38;278.60;;;261.60;;
31531;SDS011;23787;52.180;5.288;2022-11-02T17:21:35;263.50;;;246.90;;
31531;SDS011;23787;52.180;5.288;2022-11-02T17:29:38;254.70;;;239.90;;
31531;SDS011;23787;52.180;5.288;2022-11-02T18:14:35;192.90;;;182.00;;
31531;SDS011;23787;52.180;5.288;2022-11-02T18:29:35;178.20;;;168.20;;
31531;SDS011;23787;52.180;5.288;2022-11-02T18:34:35;178.20;;;168.20;;
31531;SDS011;23787;52.180;5.288;2022-11-02T18:39:35;178.20;;;168.20;;
31531;SDS011;23787;52.180;5.288;2022-11-02T18:54:35;172.60;;;163.30;;
31531;SDS011;23787;52.180;5.288;2022-11-02T18:59:35;192.20;;;181.30;;
31531;SDS011;23787;52.180;5.288;2022-11-02T19:09:35;192.20;;;181.30;;
31531;SDS011;23787;52.180;5.288;2022-11-02T19:19:35;164.60;;;155.20;;
31531;SDS011;23787;52.180;5.288;2022-11-02T19:24:35;164.60;;;155.20;;
31531;SDS011;23787;52.180;5.288;2022-11-02T19:59:35;162.00;;;153.60;;
31531;SDS011;23787;52.180;5.288;2022-11-02T20:04:35;162.00;;;153.60;;
31531;SDS011;23787;52.180;5.288;2022-11-02T20:09:35;162.00;;;153.60;;
31531;SDS011;23787;52.180;5.288;2022-11-02T20:14:35;148.40;;;139.70;;
31531;SDS011;23787;52.180;5.288;2022-11-02T20:34:35;143.00;;;135.70;;
31531;SDS011;23787;52.180;5.288;2022-11-02T20:44:35;137.70;;;130.10;;
31531;SDS011;23787;52.180;5.288;2022-11-02T21:04:35;162.00;;;153.00;;
31531;SDS011;23787;52.180;5.288;2022-11-02T21:24:35;134.10;;;127.00;;
31531;SDS011;23787;52.180;5.288;2022-11-02T21:29:35;123.60;;;117.30;;
31531;SDS011;23787;52.180;5.288;2022-11-02T21:34:35;123.60;;;117.30;;
31531;SDS011;23787;52.180;5.288;2022-11-02T21:39:35;123.60;;;117.30;;
31531;SDS011;23787;52.180;5.288;2022-11-02T21:49:35;116.50;;;110.20;;
31531;SDS011;23787;52.180;5.288;2022-11-02T21:59:35;130.20;;;123.40;;
31531;SDS011;23787;52.180;5.288;2022-11-02T22:04:35;130.20;;;123.40;;
31531;SDS011;23787;52.180;5.288;2022-11-02T22:09:35;130.20;;;123.40;;
31531;SDS011;23787;52.180;5.288;2022-11-02T22:19:35;121.70;;;114.50;;
31531;SDS011;23787;52.180;5.288;2022-11-02T22:29:35;132.50;;;125.60;;
31531;SDS011;23787;52.180;5.288;2022-11-02T22:34:35;132.50;;;125.60;;
31531;SDS011;23787;52.180;5.288;2022-11-02T23:14:35;111.90;;;106.00;;
31531;SDS011;23787;52.180;5.288;2022-11-02T23:29:35;104.60;;;99.10;;
31531;SDS011;23787;52.180;5.288;2022-11-02T23:34:35;104.60;;;99.10;;
31531;SDS011;23787;52.180;5.288;2022-11-02T23:54:35;110.20;;;104.10;;
